sensor_id;sensor_type;location;lat;lon;timestamp;temperature;humidity
29345;DHT22;16339;48.748;2.222;2023-01-05T00:01:50;16.00;95.50
29345;DHT22;16339;48.748;2.222;2023-01-05T00:04:19;16.00;95.50
29345;DHT22;16339;48.748;2.222;2023-01-05T00:06:48;16.00;95.50
29345;DHT22;16339;48.748;2.222;2023-01-05T00:09:18;16.00;95.50
29345;DHT22;16339;48.748;2.222;2023-01-05T00:11:47;16.00;95.80
29345;DHT22;16339;48.748;2.222;2023-01-05T00:14:31;16.00;95.70
29345;DHT22;16339;48.748;2.222;2023-01-05T00:17:28;16.00;95.70
29345;DHT22;16339;48.748;2.222;2023-01-05T00:20:16;16.00;95.60
29345;DHT22;16339;48.748;2.222;2023-01-05T00:22:58;16.10;95.70
29345;DHT22;16339;48.748;2.222;2023-01-05T00:25:29;16.00;95.70
29345;DHT22;16339;48.748;2.222;2023-01-05T00:27:59;16.00;95.80
29345;DHT22;16339;48.748;2.222;2023-01-05T00:30:32;16.00;95.80
29345;DHT22;16339;48.748;2.222;2023-01-05T00:33:01;16.00;95.80
29345;DHT22;16339;48.748;2.222;2023-01-05T00:35:30;16.10;95.80
29345;DHT22;16339;48.748;2.222;2023-01-05T00:37:59;16.10;95.80
29345;DHT22;16339;48.748;2.222;2023-01-05T00:40:28;16.10;95.70
29345;DHT22;16339;48.748;2.222;2023-01-05T00:42:57;16.10;95.70
29345;DHT22;16339;48.748;2.222;2023-01-05T00:45:30;16.10;95.70
29345;DHT22;16339;48.748;2.222;2023-01-05T00:47:59;16.10;95.60
29345;DHT22;16339;48.748;2.222;2023-01-05T00:50:27;16.10;95.50
29345;DHT22;16339;48.748;2.222;2023-01-05T00:52:56;16.10;95.40
29345;DHT22;16339;48.748;2.222;2023-01-05T00:55:25;16.10;95.30
29345;DHT22;16339;48.748;2.222;2023-01-05T00:57:54;15.90;95.40
29345;DHT22;16339;48.748;2.222;2023-01-05T01:00:22;15.90;95.40
29345;DHT22;16339;48.748;2.222;2023-01-05T01:02:54;15.80;95.40
29345;DHT22;16339;48.748;2.222;2023-01-05T01:05:22;15.70;95.50
29345;DHT22;16339;48.748;2.222;2023-01-05T01:07:52;15.60;95.70
29345;DHT22;16339;48.748;2.222;2023-01-05T01:10:20;15.50;95.70
29345;DHT22;16339;48.748;2.222;2023-01-05T01:12:52;15.50;95.70
29345;DHT22;16339;48.748;2.222;2023-01-05T01:15:21;15.50;95.70
29345;DHT22;16339;48.748;2.222;2023-01-05T01:17:49;15.40;95.80
29345;DHT22;16339;48.748;2.222;2023-01-05T01:20:21;15.50;95.80
29345;DHT22;16339;48.748;2.222;2023-01-05T01:22:49;15.50;95.70
29345;DHT22;16339;48.748;2.222;2023-01-05T01:25:18;15.60;95.50
29345;DHT22;16339;48.748;2.222;2023-01-05T01:27:47;15.60;95.60
29345;DHT22;16339;48.748;2.222;2023-01-05T01:30:16;15.50;95.40
29345;DHT22;16339;48.748;2.222;2023-01-05T01:32:45;15.50;95.50
29345;DHT22;16339;48.748;2.222;2023-01-05T01:35:14;15.50;95.50
29345;DHT22;16339;48.748;2.222;2023-01-05T01:37:46;15.50;95.40
29345;DHT22;16339;48.748;2.222;2023-01-05T01:40:15;15.60;95.40
29345;DHT22;16339;48.748;2.222;2023-01-05T01:42:44;15.60;95.30
29345;DHT22;16339;48.748;2.222;2023-01-05T01:45:19;15.60;95.20
29345;DHT22;16339;48.748;2.222;2023-01-05T01:47:51;15.60;95.20
29345;DHT22;16339;48.748;2.222;2023-01-05T01:50:25;15.60;95.10
29345;DHT22;16339;48.748;2.222;2023-01-05T01:53:00;15.50;95.30
29345;DHT22;16339;48.748;2.222;2023-01-05T01:55:30;15.60;95.20
29345;DHT22;16339;48.748;2.222;2023-01-05T01:58:03;15.50;95.30
29345;DHT22;16339;48.748;2.222;2023-01-05T02:00:36;15.60;95.30
29345;DHT22;16339;48.748;2.222;2023-01-05T02:03:05;15.60;95.10
29345;DHT22;16339;48.748;2.222;2023-01-05T02:05:34;15.70;95.10
29345;DHT22;16339;48.748;2.222;2023-01-05T02:08:09;15.70;94.80
29345;DHT22;16339;48.748;2.222;2023-01-05T02:10:49;15.60;94.80
29345;DHT22;16339;48.748;2.222;2023-01-05T02:13:39;15.60;94.70
29345;DHT22;16339;48.748;2.222;2023-01-05T02:16:18;15.70;94.70
29345;DHT22;16339;48.748;2.222;2023-01-05T02:19:22;15.70;94.60
29345;DHT22;16339;48.748;2.222;2023-01-05T02:22:03;15.70;94.70
29345;DHT22;16339;48.748;2.222;2023-01-05T02:24:52;15.60;94.50
29345;DHT22;16339;48.748;2.222;2023-01-05T02:27:39;15.60;94.40
29345;DHT22;16339;48.748;2.222;2023-01-05T02:33:18;15.60;94.30
29345;DHT22;16339;48.748;2.222;2023-01-05T02:35:54;15.60;94.00
29345;DHT22;16339;48.748;2.222;2023-01-05T02:38:32;15.60;93.90
29345;DHT22;16339;48.748;2.222;2023-01-05T02:41:08;15.50;93.80
29345;DHT22;16339;48.748;2.222;2023-01-05T02:43:37;15.50;93.70
29345;DHT22;16339;48.748;2.222;2023-01-05T02:46:06;15.60;93.40
29345;DHT22;16339;48.748;2.222;2023-01-05T02:48:38;15.50;93.20
29345;DHT22;16339;48.748;2.222;2023-01-05T02:51:11;15.40;93.40
29345;DHT22;16339;48.748;2.222;2023-01-05T02:53:43;15.30;93.50
29345;DHT22;16339;48.748;2.222;2023-01-05T02:56:14;15.40;93.40
29345;DHT22;16339;48.748;2.222;2023-01-05T02:58:47;15.30;93.40
29345;DHT22;16339;48.748;2.222;2023-01-05T03:01:21;15.30;93.40
29345;DHT22;16339;48.748;2.222;2023-01-05T03:03:55;15.30;93.70
29345;DHT22;16339;48.748;2.222;2023-01-05T03:06:29;15.50;93.20
29345;DHT22;16339;48.748;2.222;2023-01-05T03:09:02;15.50;93.00
29345;DHT22;16339;48.748;2.222;2023-01-05T03:11:32;15.60;92.90
29345;DHT22;16339;48.748;2.222;2023-01-05T03:14:19;15.70;92.90
29345;DHT22;16339;48.748;2.222;2023-01-05T03:16:50;15.60;92.80
29345;DHT22;16339;48.748;2.222;2023-01-05T03:19:24;15.60;92.80
29345;DHT22;16339;48.748;2.222;2023-01-05T03:22:09;15.70;92.80
29345;DHT22;16339;48.748;2.222;2023-01-05T03:24:51;15.50;92.90
29345;DHT22;16339;48.748;2.222;2023-01-05T03:27:32;15.40;93.50
29345;DHT22;16339;48.748;2.222;2023-01-05T03:30:15;15.40;93.50
29345;DHT22;16339;48.748;2.222;2023-01-05T03:33:01;15.50;93.40
29345;DHT22;16339;48.748;2.222;2023-01-05T03:35:50;15.50;93.40
29345;DHT22;16339;48.748;2.222;2023-01-05T03:38:26;15.50;93.40
29345;DHT22;16339;48.748;2.222;2023-01-05T03:40:58;15.70;93.40
29345;DHT22;16339;48.748;2.222;2023-01-05T03:43:27;15.70;93.30
29345;DHT22;16339;48.748;2.222;2023-01-05T03:45:56;15.70;93.20
29345;DHT22;16339;48.748;2.222;2023-01-05T03:48:26;15.70;93.30
29345;DHT22;16339;48.748;2.222;2023-01-05T03:50:58;15.70;93.30
29345;DHT22;16339;48.748;2.222;2023-01-05T03:53:27;15.50;93.50
29345;DHT22;16339;48.748;2.222;2023-01-05T03:55:56;15.60;93.50
29345;DHT22;16339;48.748;2.222;2023-01-05T03:58:24;15.60;93.40
29345;DHT22;16339;48.748;2.222;2023-01-05T04:00:53;15.50;93.50
29345;DHT22;16339;48.748;2.222;2023-01-05T04:03:22;15.60;93.50
29345;DHT22;16339;48.748;2.222;2023-01-05T04:05:51;15.10;94.00
29345;DHT22;16339;48.748;2.222;2023-01-05T04:08:22;15.20;94.00
29345;DHT22;16339;48.748;2.222;2023-01-05T04:10:51;15.40;94.00
29345;DHT22;16339;48.748;2.222;2023-01-05T04:13:21;15.50;93.70
29345;DHT22;16339;48.748;2.222;2023-01-05T04:15:50;15.40;93.70
29345;DHT22;16339;48.748;2.222;2023-01-05T04:18:19;15.30;94.10
29345;DHT22;16339;48.748;2.222;2023-01-05T04:20:48;15.40;93.80
29345;DHT22;16339;48.748;2.222;2023-01-05T04:23:16;15.40;93.70
29345;DHT22;16339;48.748;2.222;2023-01-05T04:25:48;15.40;93.70
29345;DHT22;16339;48.748;2.222;2023-01-05T04:28:17;15.50;93.60
29345;DHT22;16339;48.748;2.222;2023-01-05T04:30:51;15.50;93.50
29345;DHT22;16339;48.748;2.222;2023-01-05T04:33:21;15.50;93.50
29345;DHT22;16339;48.748;2.222;2023-01-05T04:35:50;15.60;93.40
29345;DHT22;16339;48.748;2.222;2023-01-05T04:38:19;15.70;93.30
29345;DHT22;16339;48.748;2.222;2023-01-05T04:40:51;15.50;93.40
29345;DHT22;16339;48.748;2.222;2023-01-05T04:43:20;15.60;93.40
29345;DHT22;16339;48.748;2.222;2023-01-05T04:45:49;15.50;93.60
29345;DHT22;16339;48.748;2.222;2023-01-05T04:48:18;15.50;93.70
29345;DHT22;16339;48.748;2.222;2023-01-05T04:50:51;15.50;93.60
29345;DHT22;16339;48.748;2.222;2023-01-05T04:53:21;15.40;93.60
29345;DHT22;16339;48.748;2.222;2023-01-05T04:55:52;15.30;94.00
29345;DHT22;16339;48.748;2.222;2023-01-05T04:58:21;15.40;94.00
29345;DHT22;16339;48.748;2.222;2023-01-05T05:00:50;15.50;93.80
29345;DHT22;16339;48.748;2.222;2023-01-05T05:03:19;15.50;93.70
29345;DHT22;16339;48.748;2.222;2023-01-05T05:05:47;15.40;94.00
29345;DHT22;16339;48.748;2.222;2023-01-05T05:08:16;15.50;93.70
29345;DHT22;16339;48.748;2.222;2023-01-05T05:10:45;15.60;93.60
29345;DHT22;16339;48.748;2.222;2023-01-05T05:13:16;15.60;93.50
29345;DHT22;16339;48.748;2.222;2023-01-05T05:15:45;15.70;93.40
29345;DHT22;16339;48.748;2.222;2023-01-05T05:18:14;15.70;93.30
29345;DHT22;16339;48.748;2.222;2023-01-05T05:20:44;15.80;93.70
29345;DHT22;16339;48.748;2.222;2023-01-05T05:23:16;15.80;93.30
29345;DHT22;16339;48.748;2.222;2023-01-05T05:25:48;15.80;93.20
29345;DHT22;16339;48.748;2.222;2023-01-05T05:28:20;15.80;93.30
29345;DHT22;16339;48.748;2.222;2023-01-05T05:30:52;15.90;93.30
29345;DHT22;16339;48.748;2.222;2023-01-05T05:33:21;15.90;93.20
29345;DHT22;16339;48.748;2.222;2023-01-05T05:35:50;15.80;93.20
29345;DHT22;16339;48.748;2.222;2023-01-05T05:38:19;15.80;93.20
29345;DHT22;16339;48.748;2.222;2023-01-05T05:40:48;15.80;93.20
29345;DHT22;16339;48.748;2.222;2023-01-05T05:43:19;15.90;93.20
29345;DHT22;16339;48.748;2.222;2023-01-05T05:45:48;15.80;93.30
29345;DHT22;16339;48.748;2.222;2023-01-05T05:48:17;15.80;93.20
29345;DHT22;16339;48.748;2.222;2023-01-05T05:50:46;15.90;93.30
29345;DHT22;16339;48.748;2.222;2023-01-05T05:53:15;15.80;93.20
29345;DHT22;16339;48.748;2.222;2023-01-05T05:55:47;15.80;93.30
29345;DHT22;16339;48.748;2.222;2023-01-05T05:58:19;15.80;93.30
29345;DHT22;16339;48.748;2.222;2023-01-05T06:00:48;15.80;93.40
29345;DHT22;16339;48.748;2.222;2023-01-05T06:03:17;15.90;93.40
29345;DHT22;16339;48.748;2.222;2023-01-05T06:05:46;15.80;93.30
29345;DHT22;16339;48.748;2.222;2023-01-05T06:08:17;15.90;93.30
29345;DHT22;16339;48.748;2.222;2023-01-05T06:10:48;15.90;93.30
29345;DHT22;16339;48.748;2.222;2023-01-05T06:13:19;15.90;93.20
29345;DHT22;16339;48.748;2.222;2023-01-05T06:15:48;15.90;93.10
29345;DHT22;16339;48.748;2.222;2023-01-05T06:18:17;15.90;93.00
29345;DHT22;16339;48.748;2.222;2023-01-05T06:20:46;15.90;93.00
29345;DHT22;16339;48.748;2.222;2023-01-05T06:23:15;15.80;93.00
29345;DHT22;16339;48.748;2.222;2023-01-05T06:25:44;15.80;93.10
29345;DHT22;16339;48.748;2.222;2023-01-05T06:28:13;15.80;93.20
29345;DHT22;16339;48.748;2.222;2023-01-05T06:30:44;15.70;93.20
29345;DHT22;16339;48.748;2.222;2023-01-05T06:33:13;15.70;93.30
29345;DHT22;16339;48.748;2.222;2023-01-05T06:35:42;15.80;93.30
29345;DHT22;16339;48.748;2.222;2023-01-05T06:38:11;15.80;93.30
29345;DHT22;16339;48.748;2.222;2023-01-05T06:40:41;15.80;93.30
29345;DHT22;16339;48.748;2.222;2023-01-05T06:43:10;15.70;93.30
29345;DHT22;16339;48.748;2.222;2023-01-05T06:45:39;15.70;93.40
29345;DHT22;16339;48.748;2.222;2023-01-05T06:48:11;15.80;93.50
29345;DHT22;16339;48.748;2.222;2023-01-05T06:50:39;15.80;93.80
29345;DHT22;16339;48.748;2.222;2023-01-05T06:53:08;15.80;93.40
29345;DHT22;16339;48.748;2.222;2023-01-05T06:55:37;15.80;93.40
29345;DHT22;16339;48.748;2.222;2023-01-05T06:58:06;15.90;93.50
29345;DHT22;16339;48.748;2.222;2023-01-05T07:00:35;15.90;93.50
29345;DHT22;16339;48.748;2.222;2023-01-05T07:03:05;16.00;93.40
29345;DHT22;16339;48.748;2.222;2023-01-05T07:05:36;15.90;93.40
29345;DHT22;16339;48.748;2.222;2023-01-05T07:08:05;15.90;93.40
29345;DHT22;16339;48.748;2.222;2023-01-05T07:10:34;15.90;93.50
29345;DHT22;16339;48.748;2.222;2023-01-05T07:13:03;15.90;93.50
29345;DHT22;16339;48.748;2.222;2023-01-05T07:15:32;15.90;93.50
29345;DHT22;16339;48.748;2.222;2023-01-05T07:18:00;15.90;93.40
29345;DHT22;16339;48.748;2.222;2023-01-05T07:20:29;16.00;93.50
29345;DHT22;16339;48.748;2.222;2023-01-05T07:23:01;16.00;93.40
29345;DHT22;16339;48.748;2.222;2023-01-05T07:25:30;16.00;93.40
29345;DHT22;16339;48.748;2.222;2023-01-05T07:27:58;16.00;93.30
29345;DHT22;16339;48.748;2.222;2023-01-05T07:30:27;16.10;93.40
29345;DHT22;16339;48.748;2.222;2023-01-05T07:32:57;16.10;93.30
29345;DHT22;16339;48.748;2.222;2023-01-05T07:35:26;16.00;93.30
29345;DHT22;16339;48.748;2.222;2023-01-05T07:37:55;16.00;93.30
29345;DHT22;16339;48.748;2.222;2023-01-05T07:40:26;16.00;93.30
29345;DHT22;16339;48.748;2.222;2023-01-05T07:42:55;16.00;93.40
29345;DHT22;16339;48.748;2.222;2023-01-05T07:45:24;16.10;93.40
29345;DHT22;16339;48.748;2.222;2023-01-05T07:47:52;16.10;93.30
29345;DHT22;16339;48.748;2.222;2023-01-05T07:50:21;16.10;93.30
29345;DHT22;16339;48.748;2.222;2023-01-05T07:52:50;16.10;93.40
29345;DHT22;16339;48.748;2.222;2023-01-05T07:55:19;16.10;93.40
29345;DHT22;16339;48.748;2.222;2023-01-05T07:57:50;16.10;93.40
29345;DHT22;16339;48.748;2.222;2023-01-05T08:00:19;16.10;93.40
29345;DHT22;16339;48.748;2.222;2023-01-05T08:02:48;16.10;93.40
29345;DHT22;16339;48.748;2.222;2023-01-05T08:05:17;16.10;93.50
29345;DHT22;16339;48.748;2.222;2023-01-05T08:07:45;16.10;93.50
29345;DHT22;16339;48.748;2.222;2023-01-05T08:10:15;16.10;93.50
29345;DHT22;16339;48.748;2.222;2023-01-05T08:13:03;16.10;93.60
29345;DHT22;16339;48.748;2.222;2023-01-05T08:15:45;16.00;93.60
29345;DHT22;16339;48.748;2.222;2023-01-05T08:18:16;16.00;93.60
29345;DHT22;16339;48.748;2.222;2023-01-05T08:20:50;16.00;93.60
29345;DHT22;16339;48.748;2.222;2023-01-05T08:23:21;16.00;93.70
29345;DHT22;16339;48.748;2.222;2023-01-05T08:25:52;16.00;93.70
29345;DHT22;16339;48.748;2.222;2023-01-05T08:28:24;16.00;93.80
29345;DHT22;16339;48.748;2.222;2023-01-05T08:30:59;16.00;93.80
29345;DHT22;16339;48.748;2.222;2023-01-05T08:33:34;16.10;93.90
29345;DHT22;16339;48.748;2.222;2023-01-05T08:36:07;16.10;93.80
29345;DHT22;16339;48.748;2.222;2023-01-05T08:38:53;16.10;93.70
29345;DHT22;16339;48.748;2.222;2023-01-05T08:41:24;16.10;93.70
29345;DHT22;16339;48.748;2.222;2023-01-05T08:46:39;16.20;93.60
29345;DHT22;16339;48.748;2.222;2023-01-05T08:49:08;16.20;93.70
29345;DHT22;16339;48.748;2.222;2023-01-05T08:51:37;16.20;93.60
29345;DHT22;16339;48.748;2.222;2023-01-05T08:54:06;16.20;93.60
29345;DHT22;16339;48.748;2.222;2023-01-05T08:56:36;16.20;93.90
29345;DHT22;16339;48.748;2.222;2023-01-05T08:59:05;16.20;93.50
29345;DHT22;16339;48.748;2.222;2023-01-05T09:01:34;16.20;93.50
29345;DHT22;16339;48.748;2.222;2023-01-05T09:04:07;16.30;93.50
29345;DHT22;16339;48.748;2.222;2023-01-05T09:06:35;16.20;93.50
29345;DHT22;16339;48.748;2.222;2023-01-05T09:09:05;16.20;93.40
29345;DHT22;16339;48.748;2.222;2023-01-05T09:11:35;16.20;93.50
29345;DHT22;16339;48.748;2.222;2023-01-05T09:14:03;16.30;93.50
29345;DHT22;16339;48.748;2.222;2023-01-05T09:16:33;16.20;93.50
29345;DHT22;16339;48.748;2.222;2023-01-05T09:19:02;16.20;93.50
29345;DHT22;16339;48.748;2.222;2023-01-05T09:21:34;16.30;93.50
29345;DHT22;16339;48.748;2.222;2023-01-05T09:24:04;16.20;93.50
29345;DHT22;16339;48.748;2.222;2023-01-05T09:26:33;16.10;93.60
29345;DHT22;16339;48.748;2.222;2023-01-05T09:29:02;16.20;93.70
29345;DHT22;16339;48.748;2.222;2023-01-05T09:31:31;16.10;93.80
29345;DHT22;16339;48.748;2.222;2023-01-05T09:34:00;16.10;93.80
29345;DHT22;16339;48.748;2.222;2023-01-05T09:36:29;16.20;93.80
29345;DHT22;16339;48.748;2.222;2023-01-05T09:39:00;16.20;93.70
29345;DHT22;16339;48.748;2.222;2023-01-05T09:46:44;16.30;93.70
29345;DHT22;16339;48.748;2.222;2023-01-05T09:49:17;16.30;93.60
29345;DHT22;16339;48.748;2.222;2023-01-05T09:51:50;16.20;93.80
29345;DHT22;16339;48.748;2.222;2023-01-05T09:54:27;16.20;93.80
29345;DHT22;16339;48.748;2.222;2023-01-05T09:56:57;16.20;93.80
29345;DHT22;16339;48.748;2.222;2023-01-05T09:59:28;16.10;93.90
29345;DHT22;16339;48.748;2.222;2023-01-05T10:02:02;16.20;93.90
29345;DHT22;16339;48.748;2.222;2023-01-05T10:04:33;16.20;93.90
29345;DHT22;16339;48.748;2.222;2023-01-05T10:07:06;16.20;94.00
29345;DHT22;16339;48.748;2.222;2023-01-05T10:09:39;16.20;94.00
29345;DHT22;16339;48.748;2.222;2023-01-05T10:12:14;16.20;94.00
29345;DHT22;16339;48.748;2.222;2023-01-05T10:15:04;16.20;93.90
29345;DHT22;16339;48.748;2.222;2023-01-05T10:17:37;16.30;93.90
29345;DHT22;16339;48.748;2.222;2023-01-05T10:20:15;16.40;93.90
29345;DHT22;16339;48.748;2.222;2023-01-05T10:22:57;16.40;93.90
29345;DHT22;16339;48.748;2.222;2023-01-05T10:25:36;16.50;93.80
29345;DHT22;16339;48.748;2.222;2023-01-05T10:28:23;16.50;93.60
29345;DHT22;16339;48.748;2.222;2023-01-05T10:30:57;16.50;93.50
29345;DHT22;16339;48.748;2.222;2023-01-05T10:33:40;16.40;93.70
29345;DHT22;16339;48.748;2.222;2023-01-05T10:36:24;16.40;93.90
29345;DHT22;16339;48.748;2.222;2023-01-05T10:39:01;16.40;93.80
29345;DHT22;16339;48.748;2.222;2023-01-05T10:41:43;16.40;93.90
29345;DHT22;16339;48.748;2.222;2023-01-05T10:44:45;16.40;94.00
29345;DHT22;16339;48.748;2.222;2023-01-05T10:47:23;16.50;94.10
29345;DHT22;16339;48.748;2.222;2023-01-05T10:49:53;16.60;94.00
29345;DHT22;16339;48.748;2.222;2023-01-05T10:52:22;16.60;93.80
29345;DHT22;16339;48.748;2.222;2023-01-05T10:54:54;16.70;93.80
29345;DHT22;16339;48.748;2.222;2023-01-05T10:57:36;16.80;93.70
29345;DHT22;16339;48.748;2.222;2023-01-05T11:00:16;16.90;93.70
29345;DHT22;16339;48.748;2.222;2023-01-05T11:02:50;16.90;93.50
29345;DHT22;16339;48.748;2.222;2023-01-05T11:05:26;17.00;93.50
29345;DHT22;16339;48.748;2.222;2023-01-05T11:08:01;16.90;93.20
29345;DHT22;16339;48.748;2.222;2023-01-05T11:10:32;17.00;93.30
29345;DHT22;16339;48.748;2.222;2023-01-05T11:13:16;17.10;93.20
29345;DHT22;16339;48.748;2.222;2023-01-05T11:15:49;17.00;93.00
29345;DHT22;16339;48.748;2.222;2023-01-05T11:18:24;17.10;92.80
29345;DHT22;16339;48.748;2.222;2023-01-05T11:21:04;17.10;92.80
29345;DHT22;16339;48.748;2.222;2023-01-05T11:23:35;17.00;92.70
29345;DHT22;16339;48.748;2.222;2023-01-05T11:29:12;16.90;92.80
29345;DHT22;16339;48.748;2.222;2023-01-05T11:31:46;16.90;93.00
29345;DHT22;16339;48.748;2.222;2023-01-05T11:34:32;16.90;92.90
29345;DHT22;16339;48.748;2.222;2023-01-05T11:37:03;16.90;92.90
29345;DHT22;16339;48.748;2.222;2023-01-05T11:39:37;16.90;92.80
29345;DHT22;16339;48.748;2.222;2023-01-05T11:42:09;16.90;92.80
29345;DHT22;16339;48.748;2.222;2023-01-05T11:44:43;16.90;92.90
29345;DHT22;16339;48.748;2.222;2023-01-05T11:47:25;16.90;92.90
29345;DHT22;16339;48.748;2.222;2023-01-05T11:50:01;16.90;92.90
29345;DHT22;16339;48.748;2.222;2023-01-05T11:52:39;16.80;93.00
29345;DHT22;16339;48.748;2.222;2023-01-05T11:55:26;16.80;93.10
29345;DHT22;16339;48.748;2.222;2023-01-05T11:58:13;16.80;93.20
29345;DHT22;16339;48.748;2.222;2023-01-05T12:01:01;16.80;93.20
29345;DHT22;16339;48.748;2.222;2023-01-05T12:03:57;16.70;93.30
29345;DHT22;16339;48.748;2.222;2023-01-05T12:06:40;16.70;93.40
29345;DHT22;16339;48.748;2.222;2023-01-05T12:09:19;16.70;93.30
29345;DHT22;16339;48.748;2.222;2023-01-05T12:11:55;16.70;93.30
29345;DHT22;16339;48.748;2.222;2023-01-05T12:14:40;16.70;93.20
29345;DHT22;16339;48.748;2.222;2023-01-05T12:17:23;16.70;93.10
29345;DHT22;16339;48.748;2.222;2023-01-05T12:20:04;16.70;93.10
29345;DHT22;16339;48.748;2.222;2023-01-05T12:22:53;16.70;93.20
29345;DHT22;16339;48.748;2.222;2023-01-05T12:25:34;16.70;93.20
29345;DHT22;16339;48.748;2.222;2023-01-05T12:28:21;16.70;93.10
29345;DHT22;16339;48.748;2.222;2023-01-05T12:30:56;16.70;93.00
29345;DHT22;16339;48.748;2.222;2023-01-05T12:33:56;16.70;92.80
29345;DHT22;16339;48.748;2.222;2023-01-05T12:36:38;16.60;93.10
29345;DHT22;16339;48.748;2.222;2023-01-05T12:39:33;16.60;93.10
29345;DHT22;16339;48.748;2.222;2023-01-05T12:42:18;16.60;93.00
29345;DHT22;16339;48.748;2.222;2023-01-05T12:45:03;16.50;93.00
29345;DHT22;16339;48.748;2.222;2023-01-05T12:47:56;16.40;93.30
29345;DHT22;16339;48.748;2.222;2023-01-05T12:50:32;16.50;93.20
29345;DHT22;16339;48.748;2.222;2023-01-05T12:53:12;16.60;93.00
29345;DHT22;16339;48.748;2.222;2023-01-05T12:55:48;16.60;92.90
29345;DHT22;16339;48.748;2.222;2023-01-05T12:58:21;16.60;93.00
29345;DHT22;16339;48.748;2.222;2023-01-05T13:00:53;16.70;93.10
29345;DHT22;16339;48.748;2.222;2023-01-05T13:03:27;16.80;93.10
29345;DHT22;16339;48.748;2.222;2023-01-05T13:06:03;16.80;93.00
29345;DHT22;16339;48.748;2.222;2023-01-05T13:08:37;16.90;92.90
29345;DHT22;16339;48.748;2.222;2023-01-05T13:11:13;16.90;92.90
29345;DHT22;16339;48.748;2.222;2023-01-05T13:13:46;16.90;92.80
29345;DHT22;16339;48.748;2.222;2023-01-05T13:16:21;17.00;92.70
29345;DHT22;16339;48.748;2.222;2023-01-05T13:18:53;17.00;92.70
29345;DHT22;16339;48.748;2.222;2023-01-05T13:21:27;17.00;92.70
29345;DHT22;16339;48.748;2.222;2023-01-05T13:23:59;17.10;92.70
29345;DHT22;16339;48.748;2.222;2023-01-05T13:26:29;17.10;92.70
29345;DHT22;16339;48.748;2.222;2023-01-05T13:28:58;17.00;92.80
29345;DHT22;16339;48.748;2.222;2023-01-05T13:31:47;17.00;93.00
29345;DHT22;16339;48.748;2.222;2023-01-05T13:34:28;17.00;93.10
29345;DHT22;16339;48.748;2.222;2023-01-05T13:37:20;17.00;93.20
29345;DHT22;16339;48.748;2.222;2023-01-05T13:40:09;17.00;93.30
29345;DHT22;16339;48.748;2.222;2023-01-05T13:42:55;16.90;93.40
29345;DHT22;16339;48.748;2.222;2023-01-05T13:45:52;16.90;93.40
29345;DHT22;16339;48.748;2.222;2023-01-05T13:48:51;16.90;93.50
29345;DHT22;16339;48.748;2.222;2023-01-05T13:54:39;17.00;93.50
29345;DHT22;16339;48.748;2.222;2023-01-05T13:57:13;17.00;93.50
29345;DHT22;16339;48.748;2.222;2023-01-05T13:59:51;17.10;93.60
29345;DHT22;16339;48.748;2.222;2023-01-05T14:02:26;17.00;93.30
29345;DHT22;16339;48.748;2.222;2023-01-05T14:04:57;16.90;92.70
29345;DHT22;16339;48.748;2.222;2023-01-05T14:07:26;16.90;92.30
29345;DHT22;16339;48.748;2.222;2023-01-05T14:09:58;16.70;92.10
29345;DHT22;16339;48.748;2.222;2023-01-05T14:12:42;16.70;92.00
29345;DHT22;16339;48.748;2.222;2023-01-05T14:15:37;16.60;92.10
29345;DHT22;16339;48.748;2.222;2023-01-05T14:18:07;16.60;92.00
29345;DHT22;16339;48.748;2.222;2023-01-05T14:20:42;16.60;92.00
29345;DHT22;16339;48.748;2.222;2023-01-05T14:26:14;16.70;91.70
29345;DHT22;16339;48.748;2.222;2023-01-05T14:28:46;16.70;91.10
29345;DHT22;16339;48.748;2.222;2023-01-05T14:31:35;16.70;91.20
29345;DHT22;16339;48.748;2.222;2023-01-05T14:34:10;16.50;91.20
29345;DHT22;16339;48.748;2.222;2023-01-05T14:36:42;16.50;90.80
29345;DHT22;16339;48.748;2.222;2023-01-05T14:39:38;16.50;90.80
29345;DHT22;16339;48.748;2.222;2023-01-05T14:42:19;16.50;90.50
29345;DHT22;16339;48.748;2.222;2023-01-05T14:44:57;16.40;90.70
29345;DHT22;16339;48.748;2.222;2023-01-05T14:47:35;16.50;90.70
29345;DHT22;16339;48.748;2.222;2023-01-05T14:50:19;16.50;90.50
29345;DHT22;16339;48.748;2.222;2023-01-05T14:52:53;16.40;90.50
29345;DHT22;16339;48.748;2.222;2023-01-05T14:55:24;16.60;90.50
29345;DHT22;16339;48.748;2.222;2023-01-05T14:57:56;16.70;90.20
29345;DHT22;16339;48.748;2.222;2023-01-05T15:00:39;16.70;90.20
29345;DHT22;16339;48.748;2.222;2023-01-05T15:03:16;16.70;90.20
29345;DHT22;16339;48.748;2.222;2023-01-05T15:05:54;16.70;90.20
29345;DHT22;16339;48.748;2.222;2023-01-05T15:08:41;16.70;89.90
29345;DHT22;16339;48.748;2.222;2023-01-05T15:11:37;16.70;89.90
29345;DHT22;16339;48.748;2.222;2023-01-05T15:14:34;16.70;89.90
29345;DHT22;16339;48.748;2.222;2023-01-05T15:17:24;16.50;90.10
29345;DHT22;16339;48.748;2.222;2023-01-05T15:23:17;16.20;90.80
29345;DHT22;16339;48.748;2.222;2023-01-05T15:26:13;16.30;90.90
29345;DHT22;16339;48.748;2.222;2023-01-05T15:29:12;16.40;90.90
29345;DHT22;16339;48.748;2.222;2023-01-05T15:31:54;16.30;91.10
29345;DHT22;16339;48.748;2.222;2023-01-05T15:34:34;16.20;90.90
29345;DHT22;16339;48.748;2.222;2023-01-05T15:37:12;16.20;91.10
29345;DHT22;16339;48.748;2.222;2023-01-05T15:39:46;16.30;91.00
29345;DHT22;16339;48.748;2.222;2023-01-05T15:42:18;16.20;91.10
29345;DHT22;16339;48.748;2.222;2023-01-05T15:44:50;16.20;91.20
29345;DHT22;16339;48.748;2.222;2023-01-05T15:47:22;16.30;91.30
29345;DHT22;16339;48.748;2.222;2023-01-05T15:49:55;16.30;91.40
29345;DHT22;16339;48.748;2.222;2023-01-05T15:52:31;16.30;91.30
29345;DHT22;16339;48.748;2.222;2023-01-05T15:55:10;16.30;91.50
29345;DHT22;16339;48.748;2.222;2023-01-05T15:57:42;16.40;91.60
29345;DHT22;16339;48.748;2.222;2023-01-05T16:00:21;16.30;91.60
29345;DHT22;16339;48.748;2.222;2023-01-05T16:02:53;16.40;91.50
29345;DHT22;16339;48.748;2.222;2023-01-05T16:05:25;16.40;91.50
29345;DHT22;16339;48.748;2.222;2023-01-05T16:07:59;16.50;91.40
29345;DHT22;16339;48.748;2.222;2023-01-05T16:10:37;16.50;91.30
29345;DHT22;16339;48.748;2.222;2023-01-05T16:13:20;16.50;91.40
29345;DHT22;16339;48.748;2.222;2023-01-05T16:15:53;16.50;91.40
29345;DHT22;16339;48.748;2.222;2023-01-05T16:18:27;16.50;91.30
29345;DHT22;16339;48.748;2.222;2023-01-05T16:20:58;16.40;91.30
29345;DHT22;16339;48.748;2.222;2023-01-05T16:23:34;16.40;91.40
29345;DHT22;16339;48.748;2.222;2023-01-05T16:26:04;16.30;91.40
29345;DHT22;16339;48.748;2.222;2023-01-05T16:28:34;16.40;91.40
29345;DHT22;16339;48.748;2.222;2023-01-05T16:31:11;16.20;91.30
29345;DHT22;16339;48.748;2.222;2023-01-05T16:33:43;16.20;91.30
29345;DHT22;16339;48.748;2.222;2023-01-05T16:36:17;16.30;91.30
29345;DHT22;16339;48.748;2.222;2023-01-05T16:38:47;16.30;91.20